Terminal Aerodrome Forecast
Issued by NWS

Home | Current Version | Previous Version | Text Only | Print | Product List | Glossary On
Versions: 1 2 3 4 5 6 7 8 9 10 11 12 13 14 15 16 17 18
000
FTUS45 KABQ 191749
TAFAEG
TAF
KAEG 191749Z 1918/2018 18010KT P6SM SCT015 BKN035
      TEMPO 1918/1919 BKN020
     FM191930 25017KT P6SM VCSH SCT035 BKN070
      TEMPO 1920/1924 -SHRA BKN030
     FM200100 26010KT P6SM FEW030 BKN070
     FM201000 32010KT P6SM SCT025=

USA.gov is the U.S. government's official web portal to all federal, state and local government web resources and services.